Historyczne dane pomiarowe

Dodano dane terminowe – wersja testowa.

Dane z okresu 1951-2019

Wersja bazy: 1.34 [2019-03-16, lista zmian], aktualizacja planowana na 2019-04-15

Dane meteo z obszaru Polski uzyskane na podstawie danych udostępnionych przez Instytut Meteorologii i Gospodarki Wodnej – Państwowy Instytut Badawczy.

 

Wybierz Datę:    

       

TemperaturaWilgotnośćWiatrCiśnienieOpadyŚniegCzas trwania zjawisk
 Stacja t tx tn tng RH VA  wxwx mslp ppp RRR   cm mm wxwxwxwxwxwxwx
1999-08-14 16.4 22.5 9.5- 83.3- 2.0 2.7---- 4.4------------
1999-08-13 15.2 20.0 10.9- 79.3- 5.0 2.7---- 0.0------------
1999-08-12 15.7 21.5 10.9- 84.0- 6.3 3.3---- 0.0------------
1999-08-11 19.0 23.0 15.4- 83.3- 3.7 4.0---- 0.0------------
1999-08-10 20.0 27.0 14.4- 84.5- 5.7 2.0---- 0.0------------
1999-08-09 21.9 28.5 18.4- 81.5- 3.3 4.0---- 0.0------------
1999-08-08 21.7 28.5 16.4- 81.3- 4.7 2.0---- 0.0------------
1999-08-07 21.4 28.5 13.4- 78.5- 2.7 1.0---- 2.2------------
1999-08-06 21.9 29.5 13.9- 66.5- 3.0 1.0---- 0.0------------
1999-08-05 20.4 28.0 11.4- 68.5- 2.3 0.7---- 0.0------------
1999-08-04 20.2 27.5 11.9- 67.5- 1.3 1.0---- 0.0------------
1999-08-03 20.5 27.5 12.4- 70.8- 1.3 2.3---- 0.0------------
1999-08-02 20.6 27.5 13.9- 75.8- 1.7 3.3---- 0.0------------
1999-08-01 20.0 26.5 14.4- 75.3- 2.0 3.7---- 0.0------------
1999-07-31 21.1 27.5 13.4- 77.0- 0.7 5.0---- 0.0------------
1999-07-30 20.1 26.5 12.9- 81.3- 0.7 3.0---- 0.0------------
1999-07-29 19.3 25.5 11.9- 77.8- 1.3 3.0---- 0.0------------
1999-07-28 18.1 25.0 10.9- 79.3- 3.0 3.0---- 0.0------------
1999-07-27 17.0 22.5 11.4- 67.5- 3.7 2.3---- 0.0------------
1999-07-26 20.0 25.0 15.9- 79.0- 4.7 2.7---- 0.0------------
1999-07-25 19.9 26.0 14.9- 79.3- 5.0 3.0---- 0.2------------
1999-07-24 18.2 22.5 14.9- 79.8- 5.0 3.7---- 0.1------------
1999-07-23 17.9 22.5 13.9- 75.3- 4.7 2.7---- 0.0------------
1999-07-22 19.1 24.8 14.9- 72.5- 3.3 5.0---- 0.0------------
1999-07-21 22.6 27.0 17.4- 81.3- 2.3 3.0---- 0.3------------
1999-07-20 23.5 31.0 17.9- 72.3- 2.0 1.7---- 0.4------------
1999-07-19 22.4 29.5 14.4- 77.0- 4.0 1.0---- 0.0------------
1999-07-18 21.4 27.5 14.4- 69.5- 3.7 2.3---- 0.0------------
1999-07-17 18.3 24.5 11.9- 70.0- 6.0 2.3---- 0.0------------
1999-07-16 16.6 21.0 11.4- 66.3- 3.3 2.3---- 0.2------------
1999-07-15 16.2 21.5 13.9- 82.0- 4.7 4.3---- 4.3------------
1999-07-14 20.3 26.0 17.4- 86.0- 6.7 3.7---- 24.0------------
1999-07-13 22.1 29.0 18.9- 78.8- 3.7 3.7---- 2.5------------
1999-07-12 23.1 29.0 16.4- 63.3- 3.7 3.0---- 0.0------------
1999-07-11 21.5 27.5 12.9- 57.8- 0.7 3.0---- 0.0------------
1999-07-10 20.1 26.0 13.4- 62.5- 0.0 3.7---- 0.0------------
1999-07-09 18.8 23.5 14.9- 70.3- 2.3 5.0---- 0.0------------
1999-07-08 17.4 20.0 14.9- 83.3- 6.7 3.0---- 15.0------------
1999-07-07 18.7 23.2 15.9- 87.5- 6.7 3.7---- 0.3------------
1999-07-06 24.3 30.3 20.3- 83.3- 5.7 4.3---- 5.0------------
1999-07-05 26.4 33.5 19.4- 60.8- 0.7 3.0---- 0.0------------
1999-07-04 23.5 30.0 17.4- 65.0- 2.3 2.3---- 0.0------------
1999-07-03 20.8 26.0 14.4- 70.8- 4.0 2.3---- 0.0------------
1999-07-02 18.4 24.0 13.4- 70.0- 4.7 1.0---- 0.0------------
1999-07-01 19.5 23.5 15.9- 81.5- 5.3 1.3---- 4.5------------
1999-06-30 19.7 25.5 11.9- 61.0- 2.0 1.3---- 0.0------------
1999-06-29 19.2 23.5 13.4- 66.8- 1.7 2.7---- 0.0------------
1999-06-28 21.2 27.5 16.9- 68.5- 3.7 1.7---- 4.4------------
1999-06-27 20.6 27.0 13.9- 63.8- 2.7 3.7---- 0.0------------
1999-06-26 14.6 19.0 9.0- 72.3- 3.7 1.7---- 0.0------------
1999-06-25 13.5 17.5 9.5- 77.8- 5.3 1.7---- 10.9------------
1999-06-24 12.7 19.0 4.5- 69.0- 5.0 3.0---- 0.0------------
1999-06-23 12.4 15.5 8.5- 81.0- 5.7 5.0---- 0.0------------
1999-06-22 10.6 12.5 8.9- 88.5- 7.7 6.3---- 18.4------------
1999-06-21 16.1 21.3 12.5- 77.3- 6.7 3.0---- 1.2------------
1999-06-20 19.2 23.5 14.4- 67.8- 4.0 3.7---- 0.0------------
1999-06-19 19.2 23.5 15.4- 81.8- 7.0 3.7---- 0.0------------
1999-06-18 19.1 24.5 12.9- 71.8- 2.0 2.7---- 0.0------------
1999-06-17 18.7 23.5 13.4- 75.8- 6.0 2.0---- 0.0------------
1999-06-16 17.2 22.0 10.4- 73.8- 5.0 1.7---- 0.0------------
253.9 ms

 

Źródłem pochodzenia danych jest Instytut Meteorologii i Gospodarki Wodnej – Państwowy Instytut Badawczy. Dane Instytutu Meteorologii i Gospodarki Wodnej – Państwowego Instytutu Badawczego zostały przetworzone.

Dane źródłowe można odnaleźć na stronie https://dane.imgw.pl